sensor_id;sensor_type;location;lat;lon;timestamp;P1;durP1;ratioP1;P2;durP2;ratioP2
71566;SDS011;59403;47.456;19.120;2023-04-01T00:01:11;5.32;;;2.30;;
71566;SDS011;59403;47.456;19.120;2023-04-01T00:03:40;4.20;;;2.20;;
71566;SDS011;59403;47.456;19.120;2023-04-01T00:06:07;3.85;;;2.05;;
71566;SDS011;59403;47.456;19.120;2023-04-01T00:08:34;5.37;;;2.07;;
71566;SDS011;59403;47.456;19.120;2023-04-01T00:11:00;5.22;;;2.53;;
71566;SDS011;59403;47.456;19.120;2023-04-01T00:13:27;4.82;;;2.42;;
71566;SDS011;59403;47.456;19.120;2023-04-01T00:15:55;4.78;;;2.20;;
71566;SDS011;59403;47.456;19.120;2023-04-01T00:18:23;3.95;;;2.47;;
71566;SDS011;59403;47.456;19.120;2023-04-01T00:20:51;4.57;;;2.17;;
71566;SDS011;59403;47.456;19.120;2023-04-01T00:23:18;3.78;;;2.45;;
71566;SDS011;59403;47.456;19.120;2023-04-01T00:25:46;4.70;;;2.37;;
71566;SDS011;59403;47.456;19.120;2023-04-01T00:28:16;3.67;;;2.40;;
71566;SDS011;59403;47.456;19.120;2023-04-01T00:30:43;5.50;;;2.50;;
71566;SDS011;59403;47.456;19.120;2023-04-01T00:33:11;4.77;;;2.40;;
71566;SDS011;59403;47.456;19.120;2023-04-01T00:35:39;3.95;;;2.25;;
71566;SDS011;59403;47.456;19.120;2023-04-01T00:38:07;5.10;;;2.80;;
71566;SDS011;59403;47.456;19.120;2023-04-01T00:40:37;3.45;;;2.28;;
71566;SDS011;59403;47.456;19.120;2023-04-01T00:43:09;4.53;;;2.50;;
71566;SDS011;59403;47.456;19.120;2023-04-01T00:45:39;4.97;;;2.70;;
71566;SDS011;59403;47.456;19.120;2023-04-01T00:48:08;4.70;;;2.70;;
71566;SDS011;59403;47.456;19.120;2023-04-01T00:50:42;5.07;;;2.60;;
71566;SDS011;59403;47.456;19.120;2023-04-01T00:53:12;4.43;;;2.75;;
71566;SDS011;59403;47.456;19.120;2023-04-01T00:55:42;4.70;;;2.58;;
71566;SDS011;59403;47.456;19.120;2023-04-01T00:58:16;5.90;;;2.63;;
71566;SDS011;59403;47.456;19.120;2023-04-01T01:00:45;4.62;;;2.50;;
71566;SDS011;59403;47.456;19.120;2023-04-01T01:03:16;4.78;;;3.20;;
71566;SDS011;59403;47.456;19.120;2023-04-01T01:05:48;5.85;;;3.30;;
71566;SDS011;59403;47.456;19.120;2023-04-01T01:08:32;4.35;;;3.12;;
71566;SDS011;59403;47.456;19.120;2023-04-01T01:11:11;5.90;;;3.17;;
71566;SDS011;59403;47.456;19.120;2023-04-01T01:13:40;6.28;;;3.35;;
71566;SDS011;59403;47.456;19.120;2023-04-01T01:16:12;5.55;;;3.60;;
71566;SDS011;59403;47.456;19.120;2023-04-01T01:18:48;7.28;;;3.87;;
71566;SDS011;59403;47.456;19.120;2023-04-01T01:24:31;4.00;;;2.97;;
71566;SDS011;59403;47.456;19.120;2023-04-01T01:27:19;5.18;;;2.97;;
71566;SDS011;59403;47.456;19.120;2023-04-01T01:29:59;4.53;;;3.10;;
71566;SDS011;59403;47.456;19.120;2023-04-01T01:32:52;6.07;;;2.85;;
71566;SDS011;59403;47.456;19.120;2023-04-01T01:35:30;5.47;;;3.17;;
71566;SDS011;59403;47.456;19.120;2023-04-01T01:38:01;6.57;;;2.97;;
71566;SDS011;59403;47.456;19.120;2023-04-01T01:40:32;4.87;;;3.05;;
71566;SDS011;59403;47.456;19.120;2023-04-01T01:43:03;4.60;;;2.80;;
71566;SDS011;59403;47.456;19.120;2023-04-01T01:45:34;5.10;;;3.33;;
71566;SDS011;59403;47.456;19.120;2023-04-01T01:48:04;5.37;;;3.55;;
71566;SDS011;59403;47.456;19.120;2023-04-01T01:50:35;6.00;;;3.70;;
71566;SDS011;59403;47.456;19.120;2023-04-01T01:53:04;4.72;;;3.15;;
71566;SDS011;59403;47.456;19.120;2023-04-01T01:55:34;4.70;;;3.60;;
71566;SDS011;59403;47.456;19.120;2023-04-01T01:58:04;5.22;;;3.60;;
71566;SDS011;59403;47.456;19.120;2023-04-01T02:00:36;8.13;;;3.72;;
71566;SDS011;59403;47.456;19.120;2023-04-01T02:03:05;5.63;;;3.60;;
71566;SDS011;59403;47.456;19.120;2023-04-01T02:05:32;5.57;;;3.30;;
71566;SDS011;59403;47.456;19.120;2023-04-01T02:08:03;5.43;;;3.28;;
71566;SDS011;59403;47.456;19.120;2023-04-01T02:10:35;5.78;;;3.78;;
71566;SDS011;59403;47.456;19.120;2023-04-01T02:13:05;7.22;;;3.83;;
71566;SDS011;59403;47.456;19.120;2023-04-01T02:15:40;5.83;;;4.00;;
71566;SDS011;59403;47.456;19.120;2023-04-01T02:18:09;6.07;;;3.65;;
71566;SDS011;59403;47.456;19.120;2023-04-01T02:20:38;7.72;;;3.70;;
71566;SDS011;59403;47.456;19.120;2023-04-01T02:23:08;5.87;;;3.75;;
71566;SDS011;59403;47.456;19.120;2023-04-01T02:25:37;8.30;;;3.65;;
71566;SDS011;59403;47.456;19.120;2023-04-01T02:28:05;6.00;;;2.90;;
71566;SDS011;59403;47.456;19.120;2023-04-01T02:30:34;5.62;;;3.00;;
71566;SDS011;59403;47.456;19.120;2023-04-01T02:33:05;6.72;;;3.50;;
71566;SDS011;59403;47.456;19.120;2023-04-01T02:35:33;4.37;;;2.75;;
71566;SDS011;59403;47.456;19.120;2023-04-01T02:38:02;4.18;;;2.65;;
71566;SDS011;59403;47.456;19.120;2023-04-01T02:40:41;3.87;;;2.53;;
71566;SDS011;59403;47.456;19.120;2023-04-01T02:43:10;3.45;;;2.30;;
71566;SDS011;59403;47.456;19.120;2023-04-01T02:45:38;4.22;;;2.25;;
71566;SDS011;59403;47.456;19.120;2023-04-01T02:48:06;4.87;;;2.25;;
71566;SDS011;59403;47.456;19.120;2023-04-01T02:50:34;4.15;;;2.30;;
71566;SDS011;59403;47.456;19.120;2023-04-01T02:53:02;3.63;;;2.10;;
71566;SDS011;59403;47.456;19.120;2023-04-01T02:55:33;3.92;;;2.03;;
71566;SDS011;59403;47.456;19.120;2023-04-01T02:58:04;4.93;;;1.87;;
71566;SDS011;59403;47.456;19.120;2023-04-01T03:00:31;5.22;;;2.03;;
71566;SDS011;59403;47.456;19.120;2023-04-01T03:02:58;3.65;;;2.12;;
71566;SDS011;59403;47.456;19.120;2023-04-01T03:05:26;4.07;;;1.70;;
71566;SDS011;59403;47.456;19.120;2023-04-01T03:07:53;3.28;;;1.90;;
71566;SDS011;59403;47.456;19.120;2023-04-01T03:10:20;3.03;;;1.50;;
71566;SDS011;59403;47.456;19.120;2023-04-01T03:12:48;6.40;;;1.70;;
71566;SDS011;59403;47.456;19.120;2023-04-01T03:15:17;3.35;;;1.85;;
71566;SDS011;59403;47.456;19.120;2023-04-01T03:17:44;2.13;;;1.47;;
71566;SDS011;59403;47.456;19.120;2023-04-01T03:20:12;4.62;;;1.90;;
71566;SDS011;59403;47.456;19.120;2023-04-01T03:22:40;4.37;;;1.50;;
71566;SDS011;59403;47.456;19.120;2023-04-01T03:25:07;2.60;;;1.23;;
71566;SDS011;59403;47.456;19.120;2023-04-01T03:27:34;3.45;;;1.50;;
71566;SDS011;59403;47.456;19.120;2023-04-01T03:30:01;2.03;;;1.07;;
71566;SDS011;59403;47.456;19.120;2023-04-01T03:32:30;2.17;;;1.12;;
71566;SDS011;59403;47.456;19.120;2023-04-01T03:34:57;2.28;;;1.15;;
71566;SDS011;59403;47.456;19.120;2023-04-01T03:37:24;3.22;;;1.27;;
71566;SDS011;59403;47.456;19.120;2023-04-01T03:39:51;3.12;;;1.20;;
71566;SDS011;59403;47.456;19.120;2023-04-01T03:42:18;2.63;;;1.20;;
71566;SDS011;59403;47.456;19.120;2023-04-01T03:44:45;2.58;;;1.02;;
71566;SDS011;59403;47.456;19.120;2023-04-01T03:47:12;1.70;;;0.90;;
71566;SDS011;59403;47.456;19.120;2023-04-01T03:49:40;1.90;;;0.90;;
71566;SDS011;59403;47.456;19.120;2023-04-01T03:52:09;4.22;;;1.42;;
71566;SDS011;59403;47.456;19.120;2023-04-01T03:54:36;3.07;;;1.13;;
71566;SDS011;59403;47.456;19.120;2023-04-01T03:57:03;3.45;;;1.30;;
71566;SDS011;59403;47.456;19.120;2023-04-01T03:59:31;2.30;;;1.25;;
71566;SDS011;59403;47.456;19.120;2023-04-01T04:01:58;3.12;;;1.42;;
71566;SDS011;59403;47.456;19.120;2023-04-01T04:04:25;2.60;;;1.37;;
71566;SDS011;59403;47.456;19.120;2023-04-01T04:06:54;5.03;;;1.53;;
71566;SDS011;59403;47.456;19.120;2023-04-01T04:09:21;2.37;;;1.27;;
71566;SDS011;59403;47.456;19.120;2023-04-01T04:11:48;3.37;;;1.58;;
71566;SDS011;59403;47.456;19.120;2023-04-01T04:14:16;2.15;;;1.30;;
71566;SDS011;59403;47.456;19.120;2023-04-01T04:16:43;3.58;;;1.55;;
71566;SDS011;59403;47.456;19.120;2023-04-01T04:19:09;2.87;;;1.20;;
71566;SDS011;59403;47.456;19.120;2023-04-01T04:21:36;2.70;;;1.23;;
71566;SDS011;59403;47.456;19.120;2023-04-01T04:24:05;2.40;;;1.30;;
71566;SDS011;59403;47.456;19.120;2023-04-01T04:26:32;3.42;;;1.20;;
71566;SDS011;59403;47.456;19.120;2023-04-01T04:28:59;3.47;;;1.20;;
71566;SDS011;59403;47.456;19.120;2023-04-01T04:31:26;3.57;;;1.40;;
71566;SDS011;59403;47.456;19.120;2023-04-01T04:33:54;4.85;;;1.30;;
71566;SDS011;59403;47.456;19.120;2023-04-01T04:36:21;5.10;;;1.98;;
71566;SDS011;59403;47.456;19.120;2023-04-01T04:38:48;2.87;;;1.58;;
71566;SDS011;59403;47.456;19.120;2023-04-01T04:41:17;3.72;;;2.00;;
71566;SDS011;59403;47.456;19.120;2023-04-01T04:43:50;2.70;;;1.37;;
71566;SDS011;59403;47.456;19.120;2023-04-01T04:46:18;3.22;;;1.50;;
71566;SDS011;59403;47.456;19.120;2023-04-01T04:48:45;2.83;;;1.58;;
71566;SDS011;59403;47.456;19.120;2023-04-01T04:51:13;3.37;;;1.50;;
71566;SDS011;59403;47.456;19.120;2023-04-01T04:53:41;3.70;;;2.05;;
71566;SDS011;59403;47.456;19.120;2023-04-01T04:56:08;4.40;;;2.13;;
71566;SDS011;59403;47.456;19.120;2023-04-01T04:58:36;3.65;;;1.70;;
71566;SDS011;59403;47.456;19.120;2023-04-01T05:01:08;4.32;;;2.20;;
71566;SDS011;59403;47.456;19.120;2023-04-01T05:03:36;4.18;;;1.83;;
71566;SDS011;59403;47.456;19.120;2023-04-01T05:06:03;3.78;;;2.10;;
71566;SDS011;59403;47.456;19.120;2023-04-01T05:08:31;3.03;;;1.80;;
71566;SDS011;59403;47.456;19.120;2023-04-01T05:10:59;4.68;;;1.50;;
71566;SDS011;59403;47.456;19.120;2023-04-01T05:13:26;4.12;;;1.90;;
71566;SDS011;59403;47.456;19.120;2023-04-01T05:15:54;2.70;;;1.40;;
71566;SDS011;59403;47.456;19.120;2023-04-01T05:18:21;3.67;;;1.37;;
71566;SDS011;59403;47.456;19.120;2023-04-01T05:20:49;4.00;;;1.73;;
71566;SDS011;59403;47.456;19.120;2023-04-01T05:23:18;5.40;;;1.67;;
71566;SDS011;59403;47.456;19.120;2023-04-01T05:25:46;4.18;;;1.55;;
71566;SDS011;59403;47.456;19.120;2023-04-01T05:28:13;3.97;;;1.70;;
71566;SDS011;59403;47.456;19.120;2023-04-01T05:30:41;3.72;;;1.80;;
71566;SDS011;59403;47.456;19.120;2023-04-01T05:33:10;5.33;;;1.50;;
71566;SDS011;59403;47.456;19.120;2023-04-01T05:35:38;3.58;;;1.48;;
71566;SDS011;59403;47.456;19.120;2023-04-01T05:38:06;3.80;;;1.60;;
71566;SDS011;59403;47.456;19.120;2023-04-01T05:40:33;3.95;;;1.58;;
71566;SDS011;59403;47.456;19.120;2023-04-01T05:43:00;3.58;;;1.50;;
71566;SDS011;59403;47.456;19.120;2023-04-01T05:45:27;3.43;;;1.40;;
71566;SDS011;59403;47.456;19.120;2023-04-01T05:47:54;4.95;;;1.80;;
71566;SDS011;59403;47.456;19.120;2023-04-01T05:50:22;3.47;;;1.70;;
71566;SDS011;59403;47.456;19.120;2023-04-01T05:52:49;4.28;;;1.65;;
71566;SDS011;59403;47.456;19.120;2023-04-01T05:55:16;3.10;;;1.55;;
71566;SDS011;59403;47.456;19.120;2023-04-01T05:57:44;3.43;;;2.00;;
71566;SDS011;59403;47.456;19.120;2023-04-01T06:00:13;4.35;;;2.12;;
71566;SDS011;59403;47.456;19.120;2023-04-01T06:02:41;6.00;;;2.70;;
71566;SDS011;59403;47.456;19.120;2023-04-01T06:05:13;5.85;;;2.30;;
71566;SDS011;59403;47.456;19.120;2023-04-01T06:11:30;7.57;;;3.70;;
71566;SDS011;59403;47.456;19.120;2023-04-01T06:14:10;4.82;;;1.48;;
71566;SDS011;59403;47.456;19.120;2023-04-01T06:16:49;3.50;;;1.00;;
71566;SDS011;59403;47.456;19.120;2023-04-01T06:19:32;1.25;;;0.55;;
71566;SDS011;59403;47.456;19.120;2023-04-01T06:22:08;2.53;;;0.65;;
71566;SDS011;59403;47.456;19.120;2023-04-01T06:27:59;3.03;;;0.85;;
71566;SDS011;59403;47.456;19.120;2023-04-01T06:30:43;5.18;;;0.62;;
71566;SDS011;59403;47.456;19.120;2023-04-01T06:39:22;1.40;;;0.60;;
71566;SDS011;59403;47.456;19.120;2023-04-01T06:42:07;1.55;;;0.47;;
71566;SDS011;59403;47.456;19.120;2023-04-01T06:44:49;1.62;;;0.70;;
71566;SDS011;59403;47.456;19.120;2023-04-01T06:47:27;2.60;;;0.60;;
71566;SDS011;59403;47.456;19.120;2023-04-01T06:50:06;2.42;;;0.93;;
71566;SDS011;59403;47.456;19.120;2023-04-01T06:52:46;3.30;;;0.67;;
71566;SDS011;59403;47.456;19.120;2023-04-01T06:55:25;2.67;;;0.70;;
71566;SDS011;59403;47.456;19.120;2023-04-01T06:57:58;1.85;;;0.57;;
71566;SDS011;59403;47.456;19.120;2023-04-01T07:00:30;2.30;;;0.60;;
71566;SDS011;59403;47.456;19.120;2023-04-01T07:03:02;2.47;;;0.65;;
71566;SDS011;59403;47.456;19.120;2023-04-01T07:05:37;1.50;;;0.50;;
71566;SDS011;59403;47.456;19.120;2023-04-01T07:08:06;2.83;;;0.80;;
71566;SDS011;59403;47.456;19.120;2023-04-01T07:10:41;3.05;;;0.62;;
71566;SDS011;59403;47.456;19.120;2023-04-01T07:13:13;2.05;;;0.45;;
71566;SDS011;59403;47.456;19.120;2023-04-01T07:15:54;1.08;;;0.50;;
71566;SDS011;59403;47.456;19.120;2023-04-01T07:18:29;2.53;;;0.60;;
71566;SDS011;59403;47.456;19.120;2023-04-01T07:21:01;2.42;;;0.50;;
71566;SDS011;59403;47.456;19.120;2023-04-01T07:23:29;2.17;;;0.60;;
71566;SDS011;59403;47.456;19.120;2023-04-01T07:26:04;2.78;;;0.88;;
71566;SDS011;59403;47.456;19.120;2023-04-01T07:28:37;5.10;;;0.93;;
71566;SDS011;59403;47.456;19.120;2023-04-01T07:31:07;2.10;;;0.70;;
71566;SDS011;59403;47.456;19.120;2023-04-01T07:33:46;6.35;;;0.95;;
71566;SDS011;59403;47.456;19.120;2023-04-01T07:36:22;3.35;;;0.70;;
71566;SDS011;59403;47.456;19.120;2023-04-01T07:38:57;8.30;;;0.90;;
71566;SDS011;59403;47.456;19.120;2023-04-01T07:41:37;5.40;;;0.85;;
71566;SDS011;59403;47.456;19.120;2023-04-01T07:44:13;2.77;;;1.00;;
71566;SDS011;59403;47.456;19.120;2023-04-01T07:49:36;1.58;;;0.62;;
71566;SDS011;59403;47.456;19.120;2023-04-01T07:52:18;3.72;;;0.80;;
71566;SDS011;59403;47.456;19.120;2023-04-01T07:54:52;2.78;;;0.80;;
71566;SDS011;59403;47.456;19.120;2023-04-01T07:57:25;2.07;;;0.70;;
71566;SDS011;59403;47.456;19.120;2023-04-01T08:00:02;1.58;;;0.52;;
71566;SDS011;59403;47.456;19.120;2023-04-01T08:02:41;5.37;;;4.87;;
71566;SDS011;59403;47.456;19.120;2023-04-01T08:05:19;2.40;;;0.70;;
71566;SDS011;59403;47.456;19.120;2023-04-01T08:07:54;2.25;;;0.68;;
71566;SDS011;59403;47.456;19.120;2023-04-01T08:10:32;3.70;;;0.53;;
71566;SDS011;59403;47.456;19.120;2023-04-01T08:13:07;2.53;;;0.40;;
71566;SDS011;59403;47.456;19.120;2023-04-01T08:15:45;1.50;;;0.70;;
71566;SDS011;59403;47.456;19.120;2023-04-01T08:18:22;2.67;;;0.60;;
71566;SDS011;59403;47.456;19.120;2023-04-01T08:21:01;2.50;;;0.70;;
71566;SDS011;59403;47.456;19.120;2023-04-01T08:23:32;3.30;;;0.70;;
71566;SDS011;59403;47.456;19.120;2023-04-01T08:26:04;1.45;;;0.50;;
71566;SDS011;59403;47.456;19.120;2023-04-01T08:28:37;4.47;;;0.73;;
71566;SDS011;59403;47.456;19.120;2023-04-01T08:31:09;2.67;;;0.60;;
71566;SDS011;59403;47.456;19.120;2023-04-01T08:33:40;2.28;;;0.60;;
71566;SDS011;59403;47.456;19.120;2023-04-01T08:36:12;1.63;;;0.57;;
71566;SDS011;59403;47.456;19.120;2023-04-01T08:38:42;1.15;;;0.40;;
71566;SDS011;59403;47.456;19.120;2023-04-01T08:44:30;1.70;;;0.40;;
71566;SDS011;59403;47.456;19.120;2023-04-01T08:50:52;2.00;;;0.47;;
71566;SDS011;59403;47.456;19.120;2023-04-01T08:56:40;2.70;;;0.62;;
71566;SDS011;59403;47.456;19.120;2023-04-01T08:59:21;2.08;;;0.50;;
71566;SDS011;59403;47.456;19.120;2023-04-01T09:02:02;2.28;;;0.60;;
71566;SDS011;59403;47.456;19.120;2023-04-01T09:04:57;1.80;;;0.50;;
71566;SDS011;59403;47.456;19.120;2023-04-01T09:07:48;1.85;;;0.70;;
71566;SDS011;59403;47.456;19.120;2023-04-01T09:10:34;1.75;;;0.60;;
71566;SDS011;59403;47.456;19.120;2023-04-01T09:13:24;2.47;;;0.60;;
71566;SDS011;59403;47.456;19.120;2023-04-01T09:19:21;2.70;;;0.80;;
71566;SDS011;59403;47.456;19.120;2023-04-01T09:21:55;2.72;;;0.50;;
71566;SDS011;59403;47.456;19.120;2023-04-01T09:24:41;1.77;;;0.70;;
71566;SDS011;59403;47.456;19.120;2023-04-01T09:27:27;1.73;;;0.75;;
71566;SDS011;59403;47.456;19.120;2023-04-01T09:30:10;3.08;;;0.60;;
71566;SDS011;59403;47.456;19.120;2023-04-01T09:36:07;6.30;;;0.60;;
71566;SDS011;59403;47.456;19.120;2023-04-01T09:38:49;2.90;;;0.60;;
71566;SDS011;59403;47.456;19.120;2023-04-01T09:41:28;1.80;;;0.68;;
71566;SDS011;59403;47.456;19.120;2023-04-01T09:44:01;3.58;;;0.93;;
71566;SDS011;59403;47.456;19.120;2023-04-01T09:46:37;2.40;;;0.50;;
71566;SDS011;59403;47.456;19.120;2023-04-01T09:49:32;1.50;;;1.05;;
71566;SDS011;59403;47.456;19.120;2023-04-01T09:52:24;1.98;;;0.70;;
71566;SDS011;59403;47.456;19.120;2023-04-01T09:55:00;3.20;;;0.90;;
71566;SDS011;59403;47.456;19.120;2023-04-01T10:00:48;2.37;;;0.70;;
71566;SDS011;59403;47.456;19.120;2023-04-01T10:03:36;3.58;;;0.90;;
71566;SDS011;59403;47.456;19.120;2023-04-01T10:12:52;2.67;;;0.70;;
71566;SDS011;59403;47.456;19.120;2023-04-01T10:15:42;2.27;;;0.73;;
71566;SDS011;59403;47.456;19.120;2023-04-01T10:21:56;2.60;;;1.30;;
71566;SDS011;59403;47.456;19.120;2023-04-01T10:24:42;12.05;;;1.08;;
71566;SDS011;59403;47.456;19.120;2023-04-01T10:27:31;3.60;;;1.25;;
71566;SDS011;59403;47.456;19.120;2023-04-01T10:36:43;4.30;;;1.12;;
71566;SDS011;59403;47.456;19.120;2023-04-01T10:39:33;3.42;;;1.05;;
71566;SDS011;59403;47.456;19.120;2023-04-01T10:45:06;2.50;;;0.83;;
71566;SDS011;59403;47.456;19.120;2023-04-01T10:50:56;2.72;;;1.12;;
71566;SDS011;59403;47.456;19.120;2023-04-01T10:53:38;3.20;;;0.88;;
71566;SDS011;59403;47.456;19.120;2023-04-01T10:59:15;5.03;;;1.10;;
71566;SDS011;59403;47.456;19.120;2023-04-01T11:11:39;3.05;;;1.00;;
71566;SDS011;59403;47.456;19.120;2023-04-01T11:21:12;5.43;;;1.10;;
71566;SDS011;59403;47.456;19.120;2023-04-01T11:24:21;2.47;;;0.77;;
71566;SDS011;59403;47.456;19.120;2023-04-01T11:27:12;3.92;;;1.23;;
71566;SDS011;59403;47.456;19.120;2023-04-01T11:32:57;3.35;;;0.75;;
71566;SDS011;59403;47.456;19.120;2023-04-01T11:38:50;1.92;;;0.65;;
71566;SDS011;59403;47.456;19.120;2023-04-01T11:41:31;3.53;;;0.65;;
71566;SDS011;59403;47.456;19.120;2023-04-01T11:44:12;3.43;;;0.60;;
71566;SDS011;59403;47.456;19.120;2023-04-01T11:46:50;3.50;;;0.50;;
71566;SDS011;59403;47.456;19.120;2023-04-01T11:52:21;2.08;;;0.65;;
71566;SDS011;59403;47.456;19.120;2023-04-01T11:55:03;3.03;;;0.60;;
71566;SDS011;59403;47.456;19.120;2023-04-01T11:57:46;3.70;;;0.83;;
71566;SDS011;59403;47.456;19.120;2023-04-01T12:00:40;3.17;;;0.70;;
71566;SDS011;59403;47.456;19.120;2023-04-01T12:03:37;2.00;;;0.90;;
71566;SDS011;59403;47.456;19.120;2023-04-01T12:06:14;2.53;;;0.70;;
71566;SDS011;59403;47.456;19.120;2023-04-01T12:08:50;3.00;;;0.70;;
71566;SDS011;59403;47.456;19.120;2023-04-01T12:11:25;1.67;;;0.57;;
71566;SDS011;59403;47.456;19.120;2023-04-01T12:14:02;3.05;;;0.98;;
71566;SDS011;59403;47.456;19.120;2023-04-01T12:19:28;2.05;;;0.70;;
71566;SDS011;59403;47.456;19.120;2023-04-01T12:22:12;3.58;;;0.70;;
71566;SDS011;59403;47.456;19.120;2023-04-01T12:25:03;1.50;;;0.50;;
71566;SDS011;59403;47.456;19.120;2023-04-01T12:27:44;3.08;;;0.50;;
71566;SDS011;59403;47.456;19.120;2023-04-01T12:30:21;2.72;;;0.60;;
71566;SDS011;59403;47.456;19.120;2023-04-01T12:33:14;3.97;;;0.75;;
71566;SDS011;59403;47.456;19.120;2023-04-01T12:36:06;2.58;;;0.70;;
71566;SDS011;59403;47.456;19.120;2023-04-01T12:38:50;2.73;;;0.80;;
71566;SDS011;59403;47.456;19.120;2023-04-01T12:41:35;2.90;;;0.50;;
71566;SDS011;59403;47.456;19.120;2023-04-01T12:44:18;2.53;;;1.02;;
71566;SDS011;59403;47.456;19.120;2023-04-01T12:50:05;1.62;;;0.50;;
71566;SDS011;59403;47.456;19.120;2023-04-01T12:52:50;2.50;;;0.80;;
71566;SDS011;59403;47.456;19.120;2023-04-01T13:07:24;1.60;;;0.60;;
71566;SDS011;59403;47.456;19.120;2023-04-01T13:10:14;3.28;;;1.25;;
71566;SDS011;59403;47.456;19.120;2023-04-01T13:12:59;6.93;;;0.85;;
71566;SDS011;59403;47.456;19.120;2023-04-01T13:15:45;3.47;;;0.88;;
71566;SDS011;59403;47.456;19.120;2023-04-01T13:18:21;3.75;;;1.00;;
71566;SDS011;59403;47.456;19.120;2023-04-01T13:20:59;2.33;;;0.60;;
71566;SDS011;59403;47.456;19.120;2023-04-01T13:23:44;3.15;;;0.90;;
71566;SDS011;59403;47.456;19.120;2023-04-01T13:26:23;2.87;;;1.75;;
71566;SDS011;59403;47.456;19.120;2023-04-01T13:28:57;3.33;;;0.70;;
71566;SDS011;59403;47.456;19.120;2023-04-01T13:34:30;2.63;;;0.90;;
71566;SDS011;59403;47.456;19.120;2023-04-01T13:37:15;2.25;;;0.98;;
71566;SDS011;59403;47.456;19.120;2023-04-01T13:39:59;2.47;;;0.90;;
71566;SDS011;59403;47.456;19.120;2023-04-01T13:42:40;2.75;;;0.60;;
71566;SDS011;59403;47.456;19.120;2023-04-01T13:45:14;1.50;;;0.95;;
71566;SDS011;59403;47.456;19.120;2023-04-01T13:50:56;3.87;;;0.80;;
71566;SDS011;59403;47.456;19.120;2023-04-01T13:53:58;1.70;;;0.50;;
71566;SDS011;59403;47.456;19.120;2023-04-01T13:56:36;2.08;;;0.62;;
71566;SDS011;59403;47.456;19.120;2023-04-01T14:02:24;1.87;;;0.70;;
71566;SDS011;59403;47.456;19.120;2023-04-01T14:05:09;2.17;;;0.35;;
71566;SDS011;59403;47.456;19.120;2023-04-01T14:07:54;1.70;;;0.57;;
71566;SDS011;59403;47.456;19.120;2023-04-01T14:10:31;2.25;;;0.90;;
71566;SDS011;59403;47.456;19.120;2023-04-01T14:13:09;1.98;;;0.60;;
71566;SDS011;59403;47.456;19.120;2023-04-01T14:15:50;1.10;;;0.73;;
71566;SDS011;59403;47.456;19.120;2023-04-01T14:24:27;3.40;;;0.95;;
71566;SDS011;59403;47.456;19.120;2023-04-01T14:30:19;2.63;;;1.10;;
71566;SDS011;59403;47.456;19.120;2023-04-01T14:32:57;2.33;;;1.02;;
71566;SDS011;59403;47.456;19.120;2023-04-01T14:35:37;3.30;;;0.88;;
71566;SDS011;59403;47.456;19.120;2023-04-01T14:38:27;4.35;;;1.83;;
71566;SDS011;59403;47.456;19.120;2023-04-01T14:41:12;2.55;;;0.68;;
71566;SDS011;59403;47.456;19.120;2023-04-01T14:47:23;1.37;;;0.68;;
71566;SDS011;59403;47.456;19.120;2023-04-01T14:50:03;1.58;;;0.60;;
71566;SDS011;59403;47.456;19.120;2023-04-01T14:52:35;1.95;;;0.40;;
71566;SDS011;59403;47.456;19.120;2023-04-01T14:55:15;3.50;;;1.02;;
71566;SDS011;59403;47.456;19.120;2023-04-01T14:57:57;2.10;;;0.50;;
71566;SDS011;59403;47.456;19.120;2023-04-01T15:00:25;2.60;;;0.60;;
71566;SDS011;59403;47.456;19.120;2023-04-01T15:02:56;1.42;;;0.70;;
71566;SDS011;59403;47.456;19.120;2023-04-01T15:05:32;1.73;;;0.80;;
71566;SDS011;59403;47.456;19.120;2023-04-01T15:08:08;4.12;;;0.93;;
71566;SDS011;59403;47.456;19.120;2023-04-01T15:10:47;2.10;;;0.60;;
71566;SDS011;59403;47.456;19.120;2023-04-01T15:13:42;2.08;;;0.62;;
71566;SDS011;59403;47.456;19.120;2023-04-01T15:16:34;2.30;;;0.95;;
71566;SDS011;59403;47.456;19.120;2023-04-01T15:19:12;3.72;;;0.98;;
71566;SDS011;59403;47.456;19.120;2023-04-01T15:21:50;2.12;;;0.80;;
71566;SDS011;59403;47.456;19.120;2023-04-01T15:24:30;2.53;;;1.30;;
71566;SDS011;59403;47.456;19.120;2023-04-01T15:27:12;3.08;;;0.90;;
71566;SDS011;59403;47.456;19.120;2023-04-01T15:30:02;2.53;;;1.40;;
71566;SDS011;59403;47.456;19.120;2023-04-01T15:32:54;6.95;;;2.10;;
71566;SDS011;59403;47.456;19.120;2023-04-01T15:35:40;2.37;;;0.93;;
71566;SDS011;59403;47.456;19.120;2023-04-01T15:38:16;2.70;;;1.20;;
71566;SDS011;59403;47.456;19.120;2023-04-01T15:40:57;2.83;;;1.85;;
71566;SDS011;59403;47.456;19.120;2023-04-01T15:43:36;2.80;;;1.80;;
71566;SDS011;59403;47.456;19.120;2023-04-01T15:46:11;3.03;;;1.17;;
71566;SDS011;59403;47.456;19.120;2023-04-01T15:48:57;2.30;;;0.70;;
71566;SDS011;59403;47.456;19.120;2023-04-01T15:51:38;2.33;;;1.00;;
71566;SDS011;59403;47.456;19.120;2023-04-01T15:57:24;2.92;;;1.30;;
71566;SDS011;59403;47.456;19.120;2023-04-01T16:00:10;2.40;;;1.23;;
71566;SDS011;59403;47.456;19.120;2023-04-01T16:02:49;13.85;;;8.93;;
71566;SDS011;59403;47.456;19.120;2023-04-01T16:05:33;10.37;;;6.10;;
71566;SDS011;59403;47.456;19.120;2023-04-01T16:08:14;7.80;;;4.87;;
71566;SDS011;59403;47.456;19.120;2023-04-01T16:10:52;4.78;;;2.75;;
71566;SDS011;59403;47.456;19.120;2023-04-01T16:13:32;2.95;;;1.60;;
71566;SDS011;59403;47.456;19.120;2023-04-01T16:16:13;1.87;;;0.98;;
71566;SDS011;59403;47.456;19.120;2023-04-01T16:18:54;1.50;;;0.80;;
71566;SDS011;59403;47.456;19.120;2023-04-01T16:21:41;1.70;;;0.60;;
71566;SDS011;59403;47.456;19.120;2023-04-01T16:24:15;1.75;;;0.40;;
71566;SDS011;59403;47.456;19.120;2023-04-01T16:26:50;2.37;;;0.57;;
71566;SDS011;59403;47.456;19.120;2023-04-01T16:29:22;1.87;;;0.70;;
71566;SDS011;59403;47.456;19.120;2023-04-01T16:31:59;1.37;;;0.40;;
71566;SDS011;59403;47.456;19.120;2023-04-01T16:34:43;1.85;;;0.70;;
71566;SDS011;59403;47.456;19.120;2023-04-01T16:37:15;1.48;;;0.80;;
71566;SDS011;59403;47.456;19.120;2023-04-01T16:39:49;1.20;;;0.30;;
71566;SDS011;59403;47.456;19.120;2023-04-01T16:42:25;1.50;;;0.50;;
71566;SDS011;59403;47.456;19.120;2023-04-01T16:45:15;1.90;;;0.70;;
71566;SDS011;59403;47.456;19.120;2023-04-01T16:47:48;1.35;;;0.60;;
71566;SDS011;59403;47.456;19.120;2023-04-01T16:50:19;1.45;;;0.55;;
71566;SDS011;59403;47.456;19.120;2023-04-01T16:52:53;2.47;;;0.60;;
71566;SDS011;59403;47.456;19.120;2023-04-01T16:55:35;2.30;;;1.10;;
71566;SDS011;59403;47.456;19.120;2023-04-01T16:58:10;2.23;;;1.00;;
71566;SDS011;59403;47.456;19.120;2023-04-01T17:00:47;1.58;;;0.57;;
71566;SDS011;59403;47.456;19.120;2023-04-01T17:03:16;1.90;;;0.70;;
71566;SDS011;59403;47.456;19.120;2023-04-01T17:05:56;2.62;;;0.77;;
71566;SDS011;59403;47.456;19.120;2023-04-01T17:08:50;3.17;;;0.80;;
71566;SDS011;59403;47.456;19.120;2023-04-01T17:11:37;2.00;;;0.70;;
71566;SDS011;59403;47.456;19.120;2023-04-01T17:14:12;1.65;;;0.43;;
71566;SDS011;59403;47.456;19.120;2023-04-01T17:16:52;1.90;;;0.50;;
71566;SDS011;59403;47.456;19.120;2023-04-01T17:19:32;0.90;;;0.40;;
71566;SDS011;59403;47.456;19.120;2023-04-01T17:22:20;2.15;;;0.50;;
71566;SDS011;59403;47.456;19.120;2023-04-01T17:24:55;2.03;;;0.60;;
71566;SDS011;59403;47.456;19.120;2023-04-01T17:27:44;0.93;;;0.50;;
71566;SDS011;59403;47.456;19.120;2023-04-01T17:30:21;1.35;;;0.50;;
71566;SDS011;59403;47.456;19.120;2023-04-01T17:32:57;2.78;;;0.45;;
71566;SDS011;59403;47.456;19.120;2023-04-01T17:35:34;2.90;;;0.82;;